Venice, CA

06:19 PDT le 05 juillet 2015 (GMT -0700)
Abbot Kinney | | Change Station
CLOSE
Current Station
Stations météorologiques personnelles
Location: Venice, CA
Altitude: 20 ft
Stations météo à proximité

Alt. 20 ft 33.99 °N, 118.47 °W | Updated 6 seconds ago

Overcast
Couvert
64.7 ° F
Paraît 64.7 ° F
N
2.0
Vent Variable Vent de ONO
Gusts 0.0 mph

Aujourd'hui
Haut(e) -- | Bas -- ° F
--% Risque de précip.
Hier
Haut(e) -- | Bas -- ° F
Precip. -- pouce
5:48 AM 8:08 PM
Lune gibbeuse décroissante, 85% visible
Pression 29.96 pouce
Visibilité 10.0 Miles terrestres
Nuages Couvert 1600 ft
Point de rosée 62 ° F
Humidité 90%
Précipitations 0.00 pouce
Profondeur de la couche neigeuse Non disponible.
UV 0.0 sur 12
Pollen 3.50 sur 12
Qualité de l'air Non disponible.
Flu Activity Non disponible.
SPECI KSMO 051307Z AUTO 00000KT 10SM OVC016 16/14 A2996 RMK AO2 T01560144 $

More Conditions Fewer Conditions

Pression 29.96 pouce
Visibilité 10.0 Miles terrestres
Nuages Couvert 1600 ft
Point de rosée 62 ° F
Humidité 90%
Précipitations 0.00 pouce
Profondeur de la couche neigeuse Non disponible.
UV 0.0 sur 12
Pollen 3.50 sur 12
Qualité de l'air Non disponible.
Flu Activity Non disponible.
SPECI KSMO 051307Z AUTO 00000KT 10SM OVC016 16/14 A2996 RMK AO2 T01560144 $

More Conditions Fewer Conditions

10-Day Weather Forecast

×

Almanac

Astronomie

Jul. 05, 2015 Lever Coucher
Temps réel
Crépuscule civil
Crépuscule nautique
Crépuscule astronomique
Lune
Durée de lumière visible
Longueur du jour
Tomorrow will be .
, % of the Moon is Illuminated

Extrêmes aujourd'hui

State Highs State Lows

Community

WunderPhotos

Upload Photos

1,835,256 Photos téléchargées !

WunderBlogs® & News

Nearby

Qualité de l'air

  Qualité de l'air Indice de la qualité de l'air Polluant
Not available.

Épaisseur de neige

Station Depth Altitude

Activité sismique

Ville Distance Mag. Time & Date
Minimum magnitude displayed is 2.5.

Températures des eaux côtières

Lieu Température

Stations

Stations météo à proximité

Emplacement de la station Température Refroidissement éolien Point de rosée Humidité Vent Precip. Alt. Mise à jour Type